sensor_id;sensor_type;location;lat;lon;timestamp;pressure;altitude;pressure_sealevel;temperature;humidity
2397;BME280;1209;48.410;9.054;2023-04-06T00:00:32;96424.31;;;3.69;100.00
2397;BME280;1209;48.410;9.054;2023-04-06T00:02:57;96410.78;;;3.56;100.00
2397;BME280;1209;48.410;9.054;2023-04-06T00:05:23;96416.25;;;3.62;100.00
2397;BME280;1209;48.410;9.054;2023-04-06T00:07:50;96413.84;;;3.40;100.00
2397;BME280;1209;48.410;9.054;2023-04-06T00:10:16;96415.59;;;3.39;100.00
2397;BME280;1209;48.410;9.054;2023-04-06T00:12:42;96415.97;;;3.35;100.00
2397;BME280;1209;48.410;9.054;2023-04-06T00:15:08;96406.88;;;3.20;100.00
2397;BME280;1209;48.410;9.054;2023-04-06T00:17:33;96405.50;;;2.95;100.00
2397;BME280;1209;48.410;9.054;2023-04-06T00:19:59;96400.16;;;3.07;100.00
2397;BME280;1209;48.410;9.054;2023-04-06T00:22:24;96402.59;;;3.30;100.00
2397;BME280;1209;48.410;9.054;2023-04-06T00:24:49;96405.31;;;3.28;100.00
2397;BME280;1209;48.410;9.054;2023-04-06T00:27:15;96400.59;;;3.12;100.00
2397;BME280;1209;48.410;9.054;2023-04-06T00:29:40;96405.81;;;3.01;100.00
2397;BME280;1209;48.410;9.054;2023-04-06T00:32:06;96400.16;;;3.07;100.00
2397;BME280;1209;48.410;9.054;2023-04-06T00:34:31;96394.88;;;3.09;100.00
2397;BME280;1209;48.410;9.054;2023-04-06T00:36:56;96396.50;;;2.89;100.00
2397;BME280;1209;48.410;9.054;2023-04-06T00:39:22;96391.66;;;2.96;100.00
2397;BME280;1209;48.410;9.054;2023-04-06T00:41:51;96389.59;;;3.10;100.00
2397;BME280;1209;48.410;9.054;2023-04-06T00:44:16;96387.44;;;3.15;100.00
2397;BME280;1209;48.410;9.054;2023-04-06T00:46:42;96383.97;;;2.84;100.00
2397;BME280;1209;48.410;9.054;2023-04-06T00:49:07;96385.13;;;2.92;100.00
2397;BME280;1209;48.410;9.054;2023-04-06T00:51:32;96383.03;;;2.86;100.00
2397;BME280;1209;48.410;9.054;2023-04-06T00:53:58;96389.28;;;2.72;100.00
2397;BME280;1209;48.410;9.054;2023-04-06T00:56:23;96386.19;;;2.57;100.00
2397;BME280;1209;48.410;9.054;2023-04-06T00:58:49;96385.19;;;2.37;100.00
2397;BME280;1209;48.410;9.054;2023-04-06T01:01:15;96379.41;;;1.91;100.00
2397;BME280;1209;48.410;9.054;2023-04-06T01:03:41;96380.84;;;2.27;100.00
2397;BME280;1209;48.410;9.054;2023-04-06T01:06:07;96380.03;;;2.37;100.00
2397;BME280;1209;48.410;9.054;2023-04-06T01:08:32;96375.47;;;2.41;100.00
2397;BME280;1209;48.410;9.054;2023-04-06T01:10:59;96370.91;;;2.22;100.00
2397;BME280;1209;48.410;9.054;2023-04-06T01:13:26;96377.72;;;2.23;100.00
2397;BME280;1209;48.410;9.054;2023-04-06T01:15:52;96374.41;;;2.32;100.00
2397;BME280;1209;48.410;9.054;2023-04-06T01:18:18;96367.22;;;2.04;100.00
2397;BME280;1209;48.410;9.054;2023-04-06T01:20:43;96369.19;;;1.89;100.00
2397;BME280;1209;48.410;9.054;2023-04-06T01:23:08;96369.31;;;1.87;100.00
2397;BME280;1209;48.410;9.054;2023-04-06T01:25:34;96365.59;;;1.92;100.00
2397;BME280;1209;48.410;9.054;2023-04-06T01:27:59;96362.91;;;1.93;100.00
2397;BME280;1209;48.410;9.054;2023-04-06T01:30:25;96357.63;;;1.95;100.00
2397;BME280;1209;48.410;9.054;2023-04-06T01:32:50;96356.69;;;1.84;100.00
2397;BME280;1209;48.410;9.054;2023-04-06T01:35:18;96353.16;;;2.08;100.00
2397;BME280;1209;48.410;9.054;2023-04-06T01:37:43;96347.22;;;1.96;100.00
2397;BME280;1209;48.410;9.054;2023-04-06T01:40:09;96350.38;;;2.00;100.00
2397;BME280;1209;48.410;9.054;2023-04-06T01:42:36;96346.59;;;2.15;100.00
2397;BME280;1209;48.410;9.054;2023-04-06T01:45:02;96349.53;;;1.88;100.00
2397;BME280;1209;48.410;9.054;2023-04-06T01:47:27;96341.81;;;1.88;100.00
2397;BME280;1209;48.410;9.054;2023-04-06T01:49:52;96339.84;;;1.92;100.00
2397;BME280;1209;48.410;9.054;2023-04-06T01:52:18;96343.81;;;1.84;100.00
2397;BME280;1209;48.410;9.054;2023-04-06T01:54:43;96339.13;;;2.01;100.00
2397;BME280;1209;48.410;9.054;2023-04-06T01:57:10;96340.41;;;2.06;100.00
2397;BME280;1209;48.410;9.054;2023-04-06T01:59:35;96341.94;;;1.86;100.00
2397;BME280;1209;48.410;9.054;2023-04-06T02:02:01;96336.78;;;1.98;100.00
2397;BME280;1209;48.410;9.054;2023-04-06T02:04:26;96342.19;;;1.83;100.00
2397;BME280;1209;48.410;9.054;2023-04-06T02:06:51;96334.13;;;1.54;100.00
2397;BME280;1209;48.410;9.054;2023-04-06T02:09:16;96332.75;;;1.50;100.00
2397;BME280;1209;48.410;9.054;2023-04-06T02:11:42;96334.50;;;1.50;100.00
2397;BME280;1209;48.410;9.054;2023-04-06T02:14:07;96337.41;;;1.45;100.00
2397;BME280;1209;48.410;9.054;2023-04-06T02:16:32;96336.47;;;1.57;100.00
2397;BME280;1209;48.410;9.054;2023-04-06T02:18:58;96341.75;;;1.56;100.00
2397;BME280;1209;48.410;9.054;2023-04-06T02:21:23;96331.66;;;1.31;100.00
2397;BME280;1209;48.410;9.054;2023-04-06T02:23:49;96338.66;;;1.29;100.00
2397;BME280;1209;48.410;9.054;2023-04-06T02:26:15;96332.72;;;1.39;100.00
2397;BME280;1209;48.410;9.054;2023-04-06T02:28:40;96336.59;;;1.45;100.00
2397;BME280;1209;48.410;9.054;2023-04-06T02:31:06;96331.31;;;1.57;100.00
2397;BME280;1209;48.410;9.054;2023-04-06T02:33:31;96330.75;;;1.54;100.00
2397;BME280;1209;48.410;9.054;2023-04-06T02:35:56;96328.19;;;1.54;100.00
2397;BME280;1209;48.410;9.054;2023-04-06T02:38:21;96332.03;;;1.48;100.00
2397;BME280;1209;48.410;9.054;2023-04-06T02:40:47;96328.41;;;1.51;100.00
2397;BME280;1209;48.410;9.054;2023-04-06T02:43:12;96332.16;;;1.47;100.00
2397;BME280;1209;48.410;9.054;2023-04-06T02:45:37;96330.03;;;1.41;100.00
2397;BME280;1209;48.410;9.054;2023-04-06T02:48:03;96334.84;;;1.45;100.00
2397;BME280;1209;48.410;9.054;2023-04-06T02:50:28;96336.22;;;1.27;100.00
2397;BME280;1209;48.410;9.054;2023-04-06T02:52:53;96332.72;;;1.28;100.00
2397;BME280;1209;48.410;9.054;2023-04-06T02:55:19;96333.91;;;1.46;100.00
2397;BME280;1209;48.410;9.054;2023-04-06T02:57:45;96331.31;;;1.35;100.00
2397;BME280;1209;48.410;9.054;2023-04-06T03:00:11;96324.63;;;1.21;100.00
2397;BME280;1209;48.410;9.054;2023-04-06T03:02:36;96335.63;;;1.23;100.00
2397;BME280;1209;48.410;9.054;2023-04-06T03:05:02;96332.81;;;1.38;100.00
2397;BME280;1209;48.410;9.054;2023-04-06T03:07:28;96328.41;;;1.51;100.00
2397;BME280;1209;48.410;9.054;2023-04-06T03:09:53;96327.72;;;1.49;100.00
2397;BME280;1209;48.410;9.054;2023-04-06T03:12:19;96327.09;;;1.34;100.00
2397;BME280;1209;48.410;9.054;2023-04-06T03:14:44;96332.38;;;1.33;100.00
2397;BME280;1209;48.410;9.054;2023-04-06T03:17:09;96324.88;;;1.41;100.00
2397;BME280;1209;48.410;9.054;2023-04-06T03:19:35;96322.06;;;1.33;100.00
2397;BME280;1209;48.410;9.054;2023-04-06T03:22:00;96324.56;;;1.45;100.00
2397;BME280;1209;48.410;9.054;2023-04-06T03:24:26;96330.38;;;1.36;100.00
2397;BME280;1209;48.410;9.054;2023-04-06T03:26:51;96334.22;;;1.42;100.00
2397;BME280;1209;48.410;9.054;2023-04-06T03:29:16;96335.66;;;1.46;100.00
2397;BME280;1209;48.410;9.054;2023-04-06T03:31:42;96329.44;;;1.37;100.00
2397;BME280;1209;48.410;9.054;2023-04-06T03:34:07;96332.25;;;1.23;100.00
2397;BME280;1209;48.410;9.054;2023-04-06T03:36:34;96334.56;;;1.26;100.00
2397;BME280;1209;48.410;9.054;2023-04-06T03:38:59;96342.66;;;1.21;100.00
2397;BME280;1209;48.410;9.054;2023-04-06T03:41:25;96331.66;;;1.19;100.00
2397;BME280;1209;48.410;9.054;2023-04-06T03:43:50;96340.78;;;1.12;100.00
2397;BME280;1209;48.410;9.054;2023-04-06T03:46:15;96339.47;;;1.07;100.00
2397;BME280;1209;48.410;9.054;2023-04-06T03:48:41;96345.31;;;1.09;100.00
2397;BME280;1209;48.410;9.054;2023-04-06T03:51:06;96344.47;;;0.97;100.00
2397;BME280;1209;48.410;9.054;2023-04-06T03:53:31;96345.84;;;0.90;100.00
2397;BME280;1209;48.410;9.054;2023-04-06T03:55:56;96347.13;;;0.84;100.00
2397;BME280;1209;48.410;9.054;2023-04-06T03:58:22;96347.47;;;0.91;100.00
2397;BME280;1209;48.410;9.054;2023-04-06T04:00:47;96348.25;;;0.69;100.00
2397;BME280;1209;48.410;9.054;2023-04-06T04:03:12;96346.31;;;0.49;100.00
2397;BME280;1209;48.410;9.054;2023-04-06T04:05:38;96340.84;;;0.53;100.00
2397;BME280;1209;48.410;9.054;2023-04-06T04:08:03;96346.13;;;0.63;100.00
2397;BME280;1209;48.410;9.054;2023-04-06T04:10:28;96348.50;;;0.77;100.00
2397;BME280;1209;48.410;9.054;2023-04-06T04:12:54;96341.72;;;0.76;100.00
2397;BME280;1209;48.410;9.054;2023-04-06T04:15:19;96347.16;;;0.60;100.00
2397;BME280;1209;48.410;9.054;2023-04-06T04:17:45;96349.06;;;0.70;100.00
2397;BME280;1209;48.410;9.054;2023-04-06T04:20:12;96350.13;;;0.78;100.00
2397;BME280;1209;48.410;9.054;2023-04-06T04:22:37;96353.19;;;0.83;100.00
2397;BME280;1209;48.410;9.054;2023-04-06T04:25:03;96351.91;;;0.89;100.00
2397;BME280;1209;48.410;9.054;2023-04-06T04:27:28;96363.47;;;0.83;100.00
2397;BME280;1209;48.410;9.054;2023-04-06T04:29:53;96354.31;;;0.68;100.00
2397;BME280;1209;48.410;9.054;2023-04-06T04:32:18;96357.13;;;0.65;100.00
2397;BME280;1209;48.410;9.054;2023-04-06T04:34:44;96358.25;;;0.61;100.00
2397;BME280;1209;48.410;9.054;2023-04-06T04:37:10;96358.72;;;0.55;100.00
2397;BME280;1209;48.410;9.054;2023-04-06T04:39:35;96367.25;;;0.55;100.00
2397;BME280;1209;48.410;9.054;2023-04-06T04:42:00;96365.13;;;0.49;100.00
2397;BME280;1209;48.410;9.054;2023-04-06T04:44:26;96369.59;;;0.58;100.00
2397;BME280;1209;48.410;9.054;2023-04-06T04:46:51;96367.81;;;0.35;100.00
2397;BME280;1209;48.410;9.054;2023-04-06T04:49:17;96362.91;;;0.32;100.00
2397;BME280;1209;48.410;9.054;2023-04-06T04:51:42;96364.31;;;0.36;100.00
2397;BME280;1209;48.410;9.054;2023-04-06T04:54:07;96372.63;;;0.40;100.00
2397;BME280;1209;48.410;9.054;2023-04-06T04:56:33;96374.13;;;0.55;100.00
2397;BME280;1209;48.410;9.054;2023-04-06T04:58:58;96369.91;;;0.54;100.00
2397;BME280;1209;48.410;9.054;2023-04-06T05:01:23;96372.50;;;0.54;100.00
2397;BME280;1209;48.410;9.054;2023-04-06T05:03:49;96373.78;;;0.59;100.00
2397;BME280;1209;48.410;9.054;2023-04-06T05:06:15;96379.50;;;0.39;100.00
2397;BME280;1209;48.410;9.054;2023-04-06T05:08:41;96378.91;;;0.36;100.00
2397;BME280;1209;48.410;9.054;2023-04-06T05:11:06;96380.34;;;0.40;100.00
2397;BME280;1209;48.410;9.054;2023-04-06T05:13:32;96382.19;;;0.38;100.00
2397;BME280;1209;48.410;9.054;2023-04-06T05:15:57;96386.34;;;0.27;100.00
2397;BME280;1209;48.410;9.054;2023-04-06T05:18:23;96379.41;;;0.41;100.00
2397;BME280;1209;48.410;9.054;2023-04-06T05:20:48;96385.16;;;0.44;100.00
2397;BME280;1209;48.410;9.054;2023-04-06T05:23:13;96390.88;;;0.24;100.00
2397;BME280;1209;48.410;9.054;2023-04-06T05:25:39;96392.31;;;0.28;100.00
2397;BME280;1209;48.410;9.054;2023-04-06T05:28:04;96388.94;;;0.51;100.00
2397;BME280;1209;48.410;9.054;2023-04-06T05:30:29;96391.41;;;0.53;100.00
2397;BME280;1209;48.410;9.054;2023-04-06T05:32:55;96385.19;;;0.31;100.00
2397;BME280;1209;48.410;9.054;2023-04-06T05:35:20;96395.53;;;0.19;100.00
2397;BME280;1209;48.410;9.054;2023-04-06T05:37:45;96391.69;;;0.24;100.00
2397;BME280;1209;48.410;9.054;2023-04-06T05:40:11;96390.59;;;0.16;100.00
2397;BME280;1209;48.410;9.054;2023-04-06T05:42:41;96396.66;;;0.51;100.00
2397;BME280;1209;48.410;9.054;2023-04-06T05:45:08;96395.50;;;0.55;100.00
2397;BME280;1209;48.410;9.054;2023-04-06T05:47:34;96402.53;;;0.65;100.00
2397;BME280;1209;48.410;9.054;2023-04-06T05:50:00;96409.28;;;0.54;100.00
2397;BME280;1209;48.410;9.054;2023-04-06T05:52:25;96405.72;;;0.68;100.00
2397;BME280;1209;48.410;9.054;2023-04-06T05:54:51;96408.00;;;0.60;100.00
2397;BME280;1209;48.410;9.054;2023-04-06T05:57:16;96398.72;;;0.70;100.00
2397;BME280;1209;48.410;9.054;2023-04-06T05:59:42;96403.31;;;0.89;100.00
2397;BME280;1209;48.410;9.054;2023-04-06T06:02:07;96401.41;;;1.04;100.00
2397;BME280;1209;48.410;9.054;2023-04-06T06:04:33;96401.66;;;1.12;100.00
2397;BME280;1209;48.410;9.054;2023-04-06T06:06:58;96411.84;;;1.24;100.00
2397;BME280;1209;48.410;9.054;2023-04-06T06:09:23;96411.16;;;1.22;100.00
2397;BME280;1209;48.410;9.054;2023-04-06T06:11:49;96414.19;;;1.16;100.00
2397;BME280;1209;48.410;9.054;2023-04-06T06:14:14;96410.47;;;1.32;100.00
2397;BME280;1209;48.410;9.054;2023-04-06T06:16:40;96413.72;;;1.22;100.00
2397;BME280;1209;48.410;9.054;2023-04-06T06:19:05;96413.44;;;1.49;100.00
2397;BME280;1209;48.410;9.054;2023-04-06T06:21:31;96417.66;;;1.50;100.00
2397;BME280;1209;48.410;9.054;2023-04-06T06:23:56;96418.53;;;1.27;100.00
2397;BME280;1209;48.410;9.054;2023-04-06T06:26:22;96420.03;;;1.30;100.00
2397;BME280;1209;48.410;9.054;2023-04-06T06:28:47;96421.69;;;1.42;100.00
2397;BME280;1209;48.410;9.054;2023-04-06T06:31:12;96420.75;;;1.32;100.00
2397;BME280;1209;48.410;9.054;2023-04-06T06:33:38;96414.88;;;1.18;100.00
2397;BME280;1209;48.410;9.054;2023-04-06T06:36:03;96413.03;;;1.32;100.00
2397;BME280;1209;48.410;9.054;2023-04-06T06:38:28;96421.09;;;1.27;100.00
2397;BME280;1209;48.410;9.054;2023-04-06T06:40:54;96415.31;;;1.47;100.00
2397;BME280;1209;48.410;9.054;2023-04-06T06:43:19;96412.84;;;1.68;100.00
2397;BME280;1209;48.410;9.054;2023-04-06T06:45:45;96412.66;;;1.94;100.00
2397;BME280;1209;48.410;9.054;2023-04-06T06:48:10;96424.09;;;2.12;100.00
2397;BME280;1209;48.410;9.054;2023-04-06T06:50:36;96430.50;;;2.29;100.00
2397;BME280;1209;48.410;9.054;2023-04-06T06:53:01;96418.41;;;2.51;100.00
2397;BME280;1209;48.410;9.054;2023-04-06T06:55:26;96425.06;;;2.65;100.00
2397;BME280;1209;48.410;9.054;2023-04-06T06:57:52;96423.75;;;2.71;100.00
2397;BME280;1209;48.410;9.054;2023-04-06T07:00:18;96421.66;;;2.97;100.00
2397;BME280;1209;48.410;9.054;2023-04-06T07:02:46;96421.44;;;3.21;97.99
2397;BME280;1209;48.410;9.054;2023-04-06T07:05:11;96424.88;;;3.31;96.78
2397;BME280;1209;48.410;9.054;2023-04-06T07:07:36;96417.97;;;3.52;96.24
2397;BME280;1209;48.410;9.054;2023-04-06T07:10:01;96424.13;;;3.82;97.46
2397;BME280;1209;48.410;9.054;2023-04-06T07:12:27;96419.38;;;3.87;93.00
2397;BME280;1209;48.410;9.054;2023-04-06T07:14:52;96418.50;;;4.07;92.00
2397;BME280;1209;48.410;9.054;2023-04-06T07:17:18;96419.63;;;4.14;87.88
2397;BME280;1209;48.410;9.054;2023-04-06T07:19:43;96420.66;;;4.32;86.79
2397;BME280;1209;48.410;9.054;2023-04-06T07:22:08;96417.00;;;4.54;85.32
2397;BME280;1209;48.410;9.054;2023-04-06T07:24:34;96421.53;;;4.71;85.62
2397;BME280;1209;48.410;9.054;2023-04-06T07:26:59;96420.59;;;4.82;84.36
2397;BME280;1209;48.410;9.054;2023-04-06T07:29:26;96419.38;;;5.05;81.25
2397;BME280;1209;48.410;9.054;2023-04-06T07:31:52;96420.03;;;5.17;77.77
2397;BME280;1209;48.410;9.054;2023-04-06T07:34:17;96418.44;;;5.26;78.75
2397;BME280;1209;48.410;9.054;2023-04-06T07:36:42;96419.88;;;5.57;77.38
2397;BME280;1209;48.410;9.054;2023-04-06T07:39:08;96415.44;;;5.87;81.36
2397;BME280;1209;48.410;9.054;2023-04-06T07:41:33;96421.47;;;6.24;73.86
2397;BME280;1209;48.410;9.054;2023-04-06T07:43:58;96424.84;;;6.80;73.90
2397;BME280;1209;48.410;9.054;2023-04-06T07:46:24;96422.16;;;7.07;72.36
2397;BME280;1209;48.410;9.054;2023-04-06T07:48:49;96419.66;;;7.15;72.05
2397;BME280;1209;48.410;9.054;2023-04-06T07:51:15;96427.00;;;7.20;72.99
2397;BME280;1209;48.410;9.054;2023-04-06T07:53:43;96421.88;;;7.28;72.77
2397;BME280;1209;48.410;9.054;2023-04-06T07:56:09;96421.50;;;7.23;70.31
2397;BME280;1209;48.410;9.054;2023-04-06T07:58:35;96422.44;;;7.40;67.61
2397;BME280;1209;48.410;9.054;2023-04-06T08:01:01;96416.66;;;7.98;64.22
2397;BME280;1209;48.410;9.054;2023-04-06T08:03:26;96412.06;;;8.17;63.74
2397;BME280;1209;48.410;9.054;2023-04-06T08:05:52;96414.94;;;8.06;63.71
2397;BME280;1209;48.410;9.054;2023-04-06T08:08:18;96415.63;;;8.16;65.57
2397;BME280;1209;48.410;9.054;2023-04-06T08:10:43;96414.38;;;7.95;68.65
2397;BME280;1209;48.410;9.054;2023-04-06T08:13:08;96413.88;;;8.25;66.72
2397;BME280;1209;48.410;9.054;2023-04-06T08:15:34;96403.78;;;8.56;63.78
2397;BME280;1209;48.410;9.054;2023-04-06T08:17:59;96406.44;;;8.89;60.94
2397;BME280;1209;48.410;9.054;2023-04-06T08:20:25;96408.06;;;8.73;62.54
2397;BME280;1209;48.410;9.054;2023-04-06T08:22:50;96398.94;;;8.77;63.30
2397;BME280;1209;48.410;9.054;2023-04-06T08:25:15;96407.78;;;9.41;63.67
2397;BME280;1209;48.410;9.054;2023-04-06T08:27:41;96410.75;;;9.55;60.88
2397;BME280;1209;48.410;9.054;2023-04-06T08:30:06;96405.63;;;9.86;60.82
2397;BME280;1209;48.410;9.054;2023-04-06T08:32:31;96412.63;;;9.85;58.05
2397;BME280;1209;48.410;9.054;2023-04-06T08:34:57;96405.34;;;9.64;61.52
2397;BME280;1209;48.410;9.054;2023-04-06T08:37:22;96402.53;;;9.82;60.97
2397;BME280;1209;48.410;9.054;2023-04-06T08:39:48;96402.91;;;10.43;60.36
2397;BME280;1209;48.410;9.054;2023-04-06T08:42:19;96401.00;;;10.90;57.39
2397;BME280;1209;48.410;9.054;2023-04-06T08:44:46;96408.22;;;10.88;56.67
2397;BME280;1209;48.410;9.054;2023-04-06T08:47:12;96403.31;;;10.85;53.78
2397;BME280;1209;48.410;9.054;2023-04-06T08:49:37;96405.81;;;11.24;54.60
2397;BME280;1209;48.410;9.054;2023-04-06T08:52:06;96399.41;;;10.81;56.91
2397;BME280;1209;48.410;9.054;2023-04-06T08:54:33;96395.91;;;11.20;53.43
2397;BME280;1209;48.410;9.054;2023-04-06T08:56:58;96402.69;;;11.52;51.97
2397;BME280;1209;48.410;9.054;2023-04-06T08:59:25;96392.19;;;11.37;52.75
2397;BME280;1209;48.410;9.054;2023-04-06T09:01:51;96392.81;;;11.39;53.85
2397;BME280;1209;48.410;9.054;2023-04-06T09:04:17;96388.69;;;11.45;52.20
2397;BME280;1209;48.410;9.054;2023-04-06T09:06:43;96399.72;;;11.70;48.21
2397;BME280;1209;48.410;9.054;2023-04-06T09:09:08;96398.09;;;11.91;50.74
2397;BME280;1209;48.410;9.054;2023-04-06T09:14:08;96385.19;;;12.70;47.80
2397;BME280;1209;48.410;9.054;2023-04-06T09:16:39;96389.44;;;12.86;46.17
2397;BME280;1209;48.410;9.054;2023-04-06T09:19:05;96391.63;;;13.04;47.00
2397;BME280;1209;48.410;9.054;2023-04-06T09:21:31;96384.63;;;12.53;47.68
2397;BME280;1209;48.410;9.054;2023-04-06T09:24:00;96392.41;;;11.65;42.58
2397;BME280;1209;48.410;9.054;2023-04-06T09:26:26;96395.41;;;11.62;43.31
2397;BME280;1209;48.410;9.054;2023-04-06T09:28:53;96393.22;;;11.51;40.51
2397;BME280;1209;48.410;9.054;2023-04-06T09:31:27;96394.31;;;12.38;42.43
2397;BME280;1209;48.410;9.054;2023-04-06T09:33:53;96385.81;;;12.36;40.88
2397;BME280;1209;48.410;9.054;2023-04-06T09:36:18;96393.13;;;12.26;41.25
2397;BME280;1209;48.410;9.054;2023-04-06T09:38:55;96385.38;;;12.69;42.84
2397;BME280;1209;48.410;9.054;2023-04-06T09:41:41;96387.94;;;12.98;42.85
2397;BME280;1209;48.410;9.054;2023-04-06T09:44:11;96388.31;;;13.59;41.97
2397;BME280;1209;48.410;9.054;2023-04-06T09:46:38;96385.94;;;13.64;39.48
2397;BME280;1209;48.410;9.054;2023-04-06T09:49:05;96383.31;;;13.64;41.93
2397;BME280;1209;48.410;9.054;2023-04-06T09:51:33;96384.16;;;13.43;40.87
2397;BME280;1209;48.410;9.054;2023-04-06T09:54:01;96384.88;;;13.16;39.14
2397;BME280;1209;48.410;9.054;2023-04-06T09:56:39;96387.16;;;13.68;38.86
2397;BME280;1209;48.410;9.054;2023-04-06T09:59:13;96374.75;;;13.55;37.30
2397;BME280;1209;48.410;9.054;2023-04-06T10:01:39;96374.31;;;13.73;38.61
2397;BME280;1209;48.410;9.054;2023-04-06T10:04:43;96378.88;;;13.65;39.27
2397;BME280;1209;48.410;9.054;2023-04-06T10:07:09;96377.81;;;13.31;39.14
2397;BME280;1209;48.410;9.054;2023-04-06T10:09:37;96365.56;;;13.94;41.68
2397;BME280;1209;48.410;9.054;2023-04-06T10:12:05;96361.56;;;14.05;37.75
2397;BME280;1209;48.410;9.054;2023-04-06T10:14:34;96369.44;;;14.05;37.07
2397;BME280;1209;48.410;9.054;2023-04-06T10:17:04;96367.84;;;14.10;37.83
2397;BME280;1209;48.410;9.054;2023-04-06T10:19:37;96360.09;;;14.71;37.27
2397;BME280;1209;48.410;9.054;2023-04-06T10:22:05;96357.47;;;14.78;37.05
2397;BME280;1209;48.410;9.054;2023-04-06T10:24:31;96357.16;;;14.12;36.02
2397;BME280;1209;48.410;9.054;2023-04-06T10:27:04;96360.91;;;14.31;36.22
2397;BME280;1209;48.410;9.054;2023-04-06T10:29:44;96361.41;;;14.13;36.70
2397;BME280;1209;48.410;9.054;2023-04-06T10:32:10;96362.75;;;14.85;36.91
2397;BME280;1209;48.410;9.054;2023-04-06T10:34:35;96351.22;;;14.31;37.02
2397;BME280;1209;48.410;9.054;2023-04-06T10:37:13;96360.44;;;14.62;36.10
2397;BME280;1209;48.410;9.054;2023-04-06T10:39:54;96360.78;;;15.13;38.49
2397;BME280;1209;48.410;9.054;2023-04-06T10:42:25;96362.66;;;14.58;34.54
2397;BME280;1209;48.410;9.054;2023-04-06T10:45:01;96358.97;;;15.14;34.51
2397;BME280;1209;48.410;9.054;2023-04-06T10:47:26;96366.41;;;14.90;33.53
2397;BME280;1209;48.410;9.054;2023-04-06T10:49:51;96357.72;;;15.09;35.82
2397;BME280;1209;48.410;9.054;2023-04-06T10:52:17;96357.19;;;14.60;34.81
2397;BME280;1209;48.410;9.054;2023-04-06T10:54:42;96351.25;;;14.99;34.67
2397;BME280;1209;48.410;9.054;2023-04-06T10:57:09;96353.94;;;15.38;36.55
2397;BME280;1209;48.410;9.054;2023-04-06T10:59:34;96359.56;;;16.15;35.93
2397;BME280;1209;48.410;9.054;2023-04-06T11:02:00;96358.19;;;15.79;35.51
2397;BME280;1209;48.410;9.054;2023-04-06T11:04:25;96361.41;;;15.55;31.96
2397;BME280;1209;48.410;9.054;2023-04-06T11:06:51;96352.41;;;16.35;33.36
2397;BME280;1209;48.410;9.054;2023-04-06T11:09:24;96362.59;;;16.18;33.98
2397;BME280;1209;48.410;9.054;2023-04-06T11:11:50;96358.00;;;16.52;33.78
2397;BME280;1209;48.410;9.054;2023-04-06T11:14:15;96348.47;;;15.86;31.21
2397;BME280;1209;48.410;9.054;2023-04-06T11:16:40;96351.50;;;15.37;31.86
2397;BME280;1209;48.410;9.054;2023-04-06T11:19:06;96347.97;;;16.29;34.35
2397;BME280;1209;48.410;9.054;2023-04-06T11:24:13;96339.06;;;16.23;31.74
2397;BME280;1209;48.410;9.054;2023-04-06T11:26:40;96336.91;;;15.94;32.20
2397;BME280;1209;48.410;9.054;2023-04-06T11:29:06;96344.25;;;15.72;33.42
2397;BME280;1209;48.410;9.054;2023-04-06T11:31:37;96338.72;;;15.93;34.76
2397;BME280;1209;48.410;9.054;2023-04-06T11:34:09;96347.44;;;15.54;33.85
2397;BME280;1209;48.410;9.054;2023-04-06T11:36:35;96338.75;;;15.47;33.68
2397;BME280;1209;48.410;9.054;2023-04-06T11:39:03;96342.38;;;15.92;33.58
2397;BME280;1209;48.410;9.054;2023-04-06T11:41:28;96326.53;;;16.63;34.92
2397;BME280;1209;48.410;9.054;2023-04-06T11:43:55;96317.44;;;16.53;34.62
2397;BME280;1209;48.410;9.054;2023-04-06T11:46:20;96335.25;;;15.99;36.44
2397;BME280;1209;48.410;9.054;2023-04-06T11:48:46;96335.31;;;15.47;36.46
2397;BME280;1209;48.410;9.054;2023-04-06T11:51:12;96328.63;;;15.84;39.22
2397;BME280;1209;48.410;9.054;2023-04-06T11:53:46;96323.44;;;16.28;37.59
2397;BME280;1209;48.410;9.054;2023-04-06T11:56:22;96320.75;;;16.86;35.57
2397;BME280;1209;48.410;9.054;2023-04-06T11:58:48;96324.56;;;16.90;36.33
2397;BME280;1209;48.410;9.054;2023-04-06T12:01:13;96316.78;;;16.71;35.82
2397;BME280;1209;48.410;9.054;2023-04-06T12:03:38;96311.31;;;16.72;34.79
2397;BME280;1209;48.410;9.054;2023-04-06T12:06:04;96305.44;;;16.70;34.62
2397;BME280;1209;48.410;9.054;2023-04-06T12:08:29;96307.81;;;16.33;35.44
2397;BME280;1209;48.410;9.054;2023-04-06T12:10:54;96301.59;;;16.08;38.66
2397;BME280;1209;48.410;9.054;2023-04-06T12:13:20;96302.75;;;16.77;36.21
2397;BME280;1209;48.410;9.054;2023-04-06T12:15:45;96300.41;;;16.49;35.55
2397;BME280;1209;48.410;9.054;2023-04-06T12:18:10;96300.06;;;16.38;35.27
2397;BME280;1209;48.410;9.054;2023-04-06T12:20:35;96291.91;;;15.95;36.61
2397;BME280;1209;48.410;9.054;2023-04-06T12:23:01;96288.84;;;16.05;36.57
2397;BME280;1209;48.410;9.054;2023-04-06T12:25:26;96296.34;;;16.01;36.06
2397;BME280;1209;48.410;9.054;2023-04-06T12:27:51;96293.38;;;15.78;36.16
2397;BME280;1209;48.410;9.054;2023-04-06T12:30:17;96297.56;;;16.12;35.08
2397;BME280;1209;48.410;9.054;2023-04-06T12:32:42;96288.13;;;15.78;35.63
2397;BME280;1209;48.410;9.054;2023-04-06T12:35:08;96286.22;;;16.50;35.43
2397;BME280;1209;48.410;9.054;2023-04-06T12:37:34;96283.69;;;15.59;34.72
2397;BME280;1209;48.410;9.054;2023-04-06T12:39:59;96281.66;;;15.74;36.47
2397;BME280;1209;48.410;9.054;2023-04-06T12:42:25;96274.69;;;16.44;37.48
2397;BME280;1209;48.410;9.054;2023-04-06T12:44:51;96284.88;;;17.10;34.96
2397;BME280;1209;48.410;9.054;2023-04-06T12:47:16;96284.44;;;17.38;35.60
2397;BME280;1209;48.410;9.054;2023-04-06T12:49:43;96286.22;;;17.19;32.09
2397;BME280;1209;48.410;9.054;2023-04-06T12:52:08;96285.25;;;17.14;32.48
2397;BME280;1209;48.410;9.054;2023-04-06T12:54:34;96276.25;;;17.46;31.64
2397;BME280;1209;48.410;9.054;2023-04-06T12:56:59;96279.88;;;17.27;33.54
2397;BME280;1209;48.410;9.054;2023-04-06T12:59:26;96272.56;;;16.97;33.03
2397;BME280;1209;48.410;9.054;2023-04-06T13:01:51;96274.09;;;17.37;32.97
2397;BME280;1209;48.410;9.054;2023-04-06T13:04:17;96276.50;;;17.63;33.46
2397;BME280;1209;48.410;9.054;2023-04-06T13:06:42;96275.81;;;17.49;32.40
2397;BME280;1209;48.410;9.054;2023-04-06T13:09:08;96269.59;;;18.05;32.99
2397;BME280;1209;48.410;9.054;2023-04-06T13:11:33;96270.41;;;17.62;32.74
2397;BME280;1209;48.410;9.054;2023-04-06T13:13:58;96274.56;;;17.77;32.88
2397;BME280;1209;48.410;9.054;2023-04-06T13:16:24;96262.97;;;17.96;32.53
2397;BME280;1209;48.410;9.054;2023-04-06T13:18:49;96269.94;;;17.47;31.78
2397;BME280;1209;48.410;9.054;2023-04-06T13:21:15;96262.44;;;16.63;31.76